createdAt,value
2022-08-05T00:01:53.209Z,6.90
2022-08-05T00:04:56.051Z,10.48
2022-08-05T00:08:00.621Z,7.65
2022-08-05T00:11:20.289Z,5.60
2022-08-05T00:14:29.277Z,6.32
2022-08-05T00:17:33.715Z,5.55
2022-08-05T00:20:35.971Z,6.70
2022-08-05T00:23:45.938Z,6.25
2022-08-05T00:26:55.165Z,6.00
2022-08-05T00:29:57.397Z,5.70
2022-08-05T00:33:02.609Z,7.35
2022-08-05T00:36:16.530Z,7.28
2022-08-05T00:39:27.424Z,8.30
2022-08-05T00:42:42.241Z,6.53
2022-08-05T00:45:50.444Z,6.95
2022-08-05T00:48:54.748Z,6.68
2022-08-05T00:51:59.873Z,6.68
2022-08-05T00:55:02.078Z,6.03
2022-08-05T00:58:05.348Z,6.47
2022-08-05T01:01:08.829Z,5.90
2022-08-05T01:04:14.313Z,5.28
2022-08-05T01:07:18.107Z,6.20
2022-08-05T01:10:25.741Z,6.80
2022-08-05T01:13:59.142Z,9.60
2022-08-05T01:17:40.296Z,8.18
2022-08-05T01:21:01.638Z,6.35
2022-08-05T01:24:24.655Z,10.55
2022-08-05T01:28:10.237Z,6.35
2022-08-05T01:31:27.804Z,5.83
2022-08-05T01:35:01.345Z,7.45
2022-08-05T01:38:05.011Z,8.77
2022-08-05T01:41:08.154Z,5.90
2022-08-05T01:44:11.407Z,6.95
2022-08-05T01:47:17.842Z,5.77
2022-08-05T01:50:29.675Z,7.30
2022-08-05T01:53:57.086Z,6.13
2022-08-05T01:58:11.775Z,5.90
2022-08-05T02:00:21.214Z,7.82
2022-08-05T02:03:44.991Z,6.77
2022-08-05T02:06:47.014Z,5.25
2022-08-05T02:09:51.094Z,6.45
2022-08-05T02:13:16.803Z,5.45
2022-08-05T02:16:27.813Z,6.50
2022-08-05T02:19:47.205Z,6.70
2022-08-05T02:22:58.356Z,8.18
2022-08-05T02:26:04.880Z,6.22
2022-08-05T02:29:21.332Z,6.78
2022-08-05T02:32:29.223Z,7.78
2022-08-05T02:35:38.557Z,6.13
2022-08-05T02:38:56.081Z,8.35
2022-08-05T02:42:01.654Z,8.98
2022-08-05T02:45:05.144Z,6.53
2022-08-05T02:48:12.595Z,6.25
2022-08-05T02:51:16.291Z,7.03
2022-08-05T02:54:36.394Z,6.28
2022-08-05T02:58:10.788Z,6.38
2022-08-05T03:01:03.387Z,7.07
2022-08-05T03:04:14.120Z,9.65
2022-08-05T03:07:59.467Z,6.27
2022-08-05T03:11:53.234Z,7.30
2022-08-05T03:14:08.009Z,5.55
2022-08-05T03:17:10.154Z,7.68
2022-08-05T03:20:13.453Z,5.65
2022-08-05T03:23:16.158Z,5.77
2022-08-05T03:26:31.569Z,6.88
2022-08-05T03:29:45.378Z,8.98
2022-08-05T03:32:57.285Z,6.60
2022-08-05T03:35:59.956Z,6.05
2022-08-05T03:39:08.431Z,7.90
2022-08-05T03:42:21.913Z,5.15
2022-08-05T03:45:29.728Z,6.15
2022-08-05T03:48:51.622Z,6.55
2022-08-05T03:52:37.529Z,5.75
2022-08-05T03:56:04.663Z,5.57
2022-08-05T03:58:59.898Z,5.30
2022-08-05T04:02:03.186Z,5.30
2022-08-05T04:05:09.652Z,9.55
2022-08-05T04:08:30.144Z,6.22
2022-08-05T04:11:47.692Z,5.43
2022-08-05T04:14:54.742Z,5.50
2022-08-05T04:18:09.525Z,6.40
2022-08-05T04:21:11.859Z,7.82
2022-08-05T04:24:18.687Z,7.93
2022-08-05T04:27:32.988Z,5.40
2022-08-05T04:30:45.209Z,9.05
2022-08-05T04:34:18.904Z,5.53
2022-08-05T04:37:09.459Z,5.63
2022-08-05T04:40:11.775Z,5.35
2022-08-05T04:43:16.554Z,8.67
2022-08-05T04:46:28.423Z,7.93
2022-08-05T04:49:39.301Z,5.47
2022-08-05T04:52:52.931Z,6.97
2022-08-05T04:56:14.576Z,8.20
2022-08-05T04:59:24.261Z,6.23
2022-08-05T05:02:41.818Z,5.32
2022-08-05T05:06:35.868Z,6.38
2022-08-05T05:09:07.181Z,7.00
2022-08-05T05:12:09.268Z,10.35
2022-08-05T05:15:13.688Z,6.67
2022-08-05T05:18:31.645Z,4.97
2022-08-05T05:21:35.932Z,6.35
2022-08-05T05:24:57.278Z,5.13
2022-08-05T05:28:01.253Z,9.65
2022-08-05T05:31:03.224Z,6.60
2022-08-05T05:34:08.963Z,7.20
2022-08-05T05:37:13.144Z,4.85
2022-08-05T05:40:19.805Z,7.30
2022-08-05T05:43:54.181Z,7.72
2022-08-05T05:46:45.056Z,10.27
2022-08-05T05:49:56.561Z,5.85
2022-08-05T05:52:59.071Z,6.50
2022-08-05T05:56:03.298Z,7.10
2022-08-05T05:59:07.372Z,6.80
2022-08-05T06:02:09.824Z,7.10
2022-08-05T06:05:16.668Z,5.30
2022-08-05T06:08:32.422Z,4.90
2022-08-05T06:11:35.351Z,5.72
2022-08-05T06:14:44.907Z,5.43
2022-08-05T06:17:52.796Z,4.83
2022-08-05T06:20:56.720Z,5.68
2022-08-05T06:23:59.916Z,7.53
2022-08-05T06:27:04.274Z,7.63
2022-08-05T06:30:20.184Z,6.32
2022-08-05T06:34:06.109Z,5.90
2022-08-05T06:36:56.897Z,6.38
2022-08-05T06:40:00.333Z,5.93
2022-08-05T06:43:04.706Z,6.28
2022-08-05T06:46:07.524Z,5.57
2022-08-05T06:49:09.672Z,5.50
2022-08-05T06:52:36.718Z,8.23
2022-08-05T06:55:36.715Z,8.13
2022-08-05T06:58:39.173Z,8.85
2022-08-05T07:01:42.509Z,6.20
2022-08-05T07:04:44.576Z,6.43
2022-08-05T07:07:49.053Z,8.52
2022-08-05T07:10:52.729Z,6.82
2022-08-05T07:14:29.337Z,6.07
2022-08-05T07:18:01.905Z,5.85
2022-08-05T07:20:55.487Z,6.20
2022-08-05T07:23:58.120Z,9.27
2022-08-05T07:27:03.586Z,5.35
2022-08-05T07:30:23.785Z,6.45
2022-08-05T07:33:36.477Z,5.95
2022-08-05T07:36:39.569Z,7.27
2022-08-05T07:40:26.064Z,6.57
2022-08-05T07:43:04.853Z,6.22
2022-08-05T07:46:23.502Z,5.32
2022-08-05T07:49:26.855Z,4.38
2022-08-05T07:52:29.391Z,7.80
2022-08-05T07:56:04.867Z,6.15
2022-08-05T07:58:54.923Z,5.45
2022-08-05T08:02:00.108Z,5.18
2022-08-05T08:05:06.039Z,5.00
2022-08-05T08:08:12.455Z,9.13
2022-08-05T08:11:16.011Z,6.57
2022-08-05T08:14:19.175Z,6.35
2022-08-05T08:17:21.863Z,5.50
2022-08-05T08:21:00.069Z,5.35
2022-08-05T08:24:01.846Z,7.07
2022-08-05T08:27:07.115Z,4.57
2022-08-05T08:30:29.839Z,5.32
2022-08-05T08:33:35.928Z,6.82
2022-08-05T08:36:48.949Z,6.38
2022-08-05T08:39:54.684Z,4.50
2022-08-05T08:42:57.091Z,4.70
2022-08-05T08:46:19.748Z,6.57
2022-08-05T08:50:08.856Z,6.07
2022-08-05T08:52:51.696Z,5.70
2022-08-05T08:56:03.767Z,8.57
2022-08-05T08:59:14.844Z,5.22
2022-08-05T09:02:26.712Z,5.85
2022-08-05T09:05:38.605Z,5.95
2022-08-05T09:08:50.955Z,5.07
2022-08-05T09:12:00.191Z,5.27
2022-08-05T09:15:09.274Z,5.22
2022-08-05T09:18:13.427Z,8.93
2022-08-05T09:21:20.904Z,4.63
2022-08-05T09:24:37.708Z,5.95
2022-08-05T09:28:03.899Z,6.13
2022-08-05T09:31:43.177Z,7.47
2022-08-05T09:35:11.648Z,5.95
2022-08-05T09:38:30.926Z,6.28
2022-08-05T09:41:38.983Z,8.77
2022-08-05T09:44:50.714Z,6.10
2022-08-05T09:47:55.994Z,7.05
2022-08-05T09:51:15.236Z,8.00
2022-08-05T09:54:31.317Z,10.05
2022-08-05T09:57:39.436Z,8.35
2022-08-05T10:01:01.958Z,14.97
2022-08-05T10:04:17.365Z,8.65
2022-08-05T10:08:10.391Z,6.93
2022-08-05T10:10:44.386Z,5.93
2022-08-05T10:13:48.375Z,4.78
2022-08-05T10:16:53.483Z,5.40
2022-08-05T10:20:03.865Z,6.25
2022-08-05T10:23:34.062Z,10.57
2022-08-05T10:26:52.207Z,7.72
2022-08-05T10:30:41.388Z,7.10
2022-08-05T10:33:17.349Z,5.90
2022-08-05T10:36:23.628Z,5.93
2022-08-05T10:39:59.492Z,6.03
2022-08-05T10:43:01.338Z,5.70
2022-08-05T10:46:07.080Z,5.38
2022-08-05T10:49:10.511Z,6.43
2022-08-05T10:52:58.463Z,5.68
2022-08-05T10:56:21.052Z,7.72
2022-08-05T11:00:03.223Z,5.90
2022-08-05T11:03:23.410Z,6.07
2022-08-05T11:06:30.802Z,6.50
2022-08-05T11:09:50.407Z,5.68
2022-08-05T11:13:06.868Z,6.10
2022-08-05T11:16:22.300Z,7.53
2022-08-05T11:20:10.334Z,6.38
2022-08-05T11:23:33.745Z,7.07
2022-08-05T11:27:10.587Z,5.05
2022-08-05T11:30:14.285Z,5.97
2022-08-05T11:33:45.951Z,5.25
2022-08-05T11:36:53.066Z,6.00
2022-08-05T11:40:03.684Z,6.23
2022-08-05T11:43:06.958Z,5.65
2022-08-05T11:46:16.138Z,8.80
2022-08-05T11:49:33.791Z,6.93
2022-08-05T11:52:36.347Z,8.40
2022-08-05T11:56:02.775Z,5.13
2022-08-05T11:59:13.872Z,5.25
2022-08-05T12:02:30.600Z,6.57
2022-08-05T12:05:39.831Z,7.07
2022-08-05T12:08:51.270Z,4.95
2022-08-05T12:11:54.243Z,7.43
2022-08-05T12:14:56.892Z,5.38
2022-08-05T12:18:10.251Z,5.55
2022-08-05T12:21:31.884Z,8.02
2022-08-05T12:24:33.910Z,7.03
2022-08-05T12:27:36.302Z,8.30
2022-08-05T12:30:57.302Z,6.05
2022-08-05T12:34:00.357Z,10.80
2022-08-05T12:37:14.037Z,6.28
2022-08-05T12:40:26.802Z,6.72
2022-08-05T12:43:32.287Z,5.47
2022-08-05T12:46:35.943Z,7.05
2022-08-05T12:50:04.221Z,6.35
2022-08-05T12:53:08.123Z,6.18
2022-08-05T12:56:35.349Z,7.25
2022-08-05T13:01:58.386Z,5.77
2022-08-05T13:03:12.338Z,7.25
2022-08-05T13:06:17.766Z,6.85
2022-08-05T13:09:27.886Z,6.35
2022-08-05T13:12:30.812Z,8.02
2022-08-05T13:15:42.160Z,6.80
2022-08-05T13:18:55.064Z,5.78
2022-08-05T13:21:59.809Z,7.07
2022-08-05T13:25:18.635Z,7.90
2022-08-05T13:28:21.901Z,6.00
2022-08-05T13:32:03.674Z,6.20
2022-08-05T13:34:49.039Z,6.15
2022-08-05T13:37:55.797Z,7.45
2022-08-05T13:40:59.868Z,7.75
2022-08-05T13:44:03.584Z,5.18
2022-08-05T13:47:09.008Z,6.60
2022-08-05T13:50:27.911Z,4.93
2022-08-05T13:53:31.149Z,4.97
2022-08-05T13:56:33.401Z,9.02
2022-08-05T13:59:35.829Z,6.68
2022-08-05T14:02:37.801Z,6.57
2022-08-05T14:06:04.635Z,5.50
2022-08-05T14:09:02.161Z,9.05
2022-08-05T14:12:17.803Z,6.03
2022-08-05T14:16:08.520Z,9.45
2022-08-05T14:18:42.695Z,5.13
2022-08-05T14:22:10.085Z,7.60
2022-08-05T14:25:18.979Z,6.53
2022-08-05T14:28:27.103Z,7.60
2022-08-05T14:32:02.459Z,6.55
2022-08-05T14:34:52.366Z,5.87
2022-08-05T14:37:55.649Z,6.35
2022-08-05T14:40:58.453Z,8.80
2022-08-05T14:44:09.497Z,7.03
2022-08-05T14:47:11.947Z,6.47
2022-08-05T14:50:18.976Z,7.70
2022-08-05T14:53:21.497Z,11.30
2022-08-05T14:56:23.986Z,5.45
2022-08-05T14:59:29.463Z,5.78
2022-08-05T15:02:37.291Z,6.47
2022-08-05T15:06:07.591Z,6.13
2022-08-05T15:09:04.806Z,5.85
2022-08-05T15:12:08.887Z,6.25
2022-08-05T15:15:15.440Z,8.52
2022-08-05T15:18:17.851Z,9.75
2022-08-05T15:21:21.012Z,12.13
2022-08-05T15:24:23.173Z,7.43
2022-08-05T15:27:25.408Z,6.18
2022-08-05T15:30:28.824Z,6.00
2022-08-05T15:34:05.214Z,5.80
2022-08-05T15:36:53.014Z,8.33
2022-08-05T15:41:00.736Z,5.88
2022-08-05T15:43:20.176Z,8.18
2022-08-05T15:46:24.641Z,7.57
2022-08-05T15:49:48.151Z,8.57
2022-08-05T15:52:53.303Z,5.50
2022-08-05T15:56:03.907Z,8.35
2022-08-05T15:59:06.945Z,7.70
2022-08-05T16:02:09.826Z,6.25
2022-08-05T16:05:17.224Z,6.10
2022-08-05T16:08:22.643Z,10.37
2022-08-05T16:11:42.470Z,6.93
2022-08-05T16:14:45.352Z,8.48
2022-08-05T16:17:57.407Z,10.00
2022-08-05T16:21:04.365Z,6.05
2022-08-05T16:24:13.015Z,5.73
2022-08-05T16:27:47.254Z,5.88
2022-08-05T16:30:52.912Z,9.85
2022-08-05T16:33:55.844Z,8.15
2022-08-05T16:36:57.857Z,6.15
2022-08-05T16:40:04.945Z,7.07
2022-08-05T16:43:09.373Z,4.93
2022-08-05T16:46:23.436Z,6.18
2022-08-05T16:49:26.704Z,6.10
2022-08-05T16:52:36.696Z,7.15
2022-08-05T16:56:04.393Z,8.20
2022-08-05T16:59:15.701Z,5.45
2022-08-05T17:02:19.205Z,6.78
2022-08-05T17:05:21.229Z,6.93
2022-08-05T17:08:36.397Z,8.90
2022-08-05T17:11:48.423Z,9.20
2022-08-05T17:14:51.518Z,5.40
2022-08-05T17:18:02.231Z,11.18
2022-08-05T17:21:04.542Z,5.93
2022-08-05T17:24:27.967Z,7.57
2022-08-05T17:27:33.939Z,9.63
2022-08-05T17:30:50.831Z,7.53
2022-08-05T17:33:55.637Z,7.13
2022-08-05T17:37:04.580Z,10.35
2022-08-05T17:40:25.041Z,7.30
2022-08-05T17:43:46.586Z,8.80
2022-08-05T17:46:49.032Z,8.57
2022-08-05T17:50:04.168Z,9.90
2022-08-05T17:53:08.704Z,10.50
2022-08-05T17:56:11.701Z,10.60
2022-08-05T17:59:14.458Z,9.53
2022-08-05T18:02:23.361Z,10.52
2022-08-05T18:05:27.889Z,29.13
2022-08-05T18:08:33.860Z,30.40
2022-08-05T18:11:35.901Z,16.55
2022-08-05T18:14:38.335Z,15.53
2022-08-05T18:17:59.598Z,16.27
2022-08-05T18:21:03.259Z,12.35
2022-08-05T18:24:05.609Z,10.80
2022-08-05T18:27:12.334Z,10.18
2022-08-05T18:30:15.210Z,10.03
2022-08-05T18:33:17.241Z,14.95
2022-08-05T18:36:28.011Z,9.52
2022-08-05T18:39:42.045Z,15.15
2022-08-05T18:42:52.446Z,10.88
2022-08-05T18:45:54.582Z,14.57
2022-08-05T18:49:18.150Z,14.55
2022-08-05T18:52:33.744Z,14.55
2022-08-05T18:55:37.747Z,12.20
2022-08-05T18:58:40.168Z,12.65
2022-08-05T19:01:48.211Z,13.17
2022-08-05T19:06:05.895Z,12.48
2022-08-05T19:08:30.332Z,10.52
2022-08-05T19:11:37.195Z,12.55
2022-08-05T19:15:00.535Z,12.05
2022-08-05T19:18:09.559Z,9.30
2022-08-05T19:21:12.845Z,15.68
2022-08-05T19:24:14.785Z,13.00
2022-08-05T19:27:16.816Z,12.70
2022-08-05T19:30:21.913Z,8.70
2022-08-05T19:33:35.406Z,10.57
2022-08-05T19:36:38.608Z,12.07
2022-08-05T19:39:45.485Z,8.80
2022-08-05T19:43:04.694Z,9.48
2022-08-05T19:46:28.957Z,11.88
2022-08-05T19:49:30.251Z,8.87
2022-08-05T19:52:32.586Z,9.80
2022-08-05T19:56:14.686Z,7.38
2022-08-05T19:58:56.640Z,10.60
2022-08-05T20:02:01.619Z,9.23
2022-08-05T20:05:09.459Z,7.20
2022-08-05T20:08:11.944Z,7.85
2022-08-05T20:11:14.054Z,9.27
2022-08-05T20:14:23.527Z,9.75
2022-08-05T20:17:29.372Z,11.45
2022-08-05T20:20:37.157Z,7.37
2022-08-05T20:23:51.174Z,8.35
2022-08-05T20:26:55.304Z,10.85
2022-08-05T20:29:59.271Z,8.50
2022-08-05T20:33:02.225Z,6.63
2022-08-05T20:36:04.288Z,7.30
2022-08-05T20:39:06.548Z,8.98
2022-08-05T20:42:12.407Z,8.80
2022-08-05T20:45:14.769Z,9.07
2022-08-05T20:48:17.648Z,11.15
2022-08-05T20:51:19.660Z,12.40
2022-08-05T20:54:59.591Z,12.25
2022-08-05T20:57:49.235Z,12.48
2022-08-05T21:00:54.516Z,10.35
2022-08-05T21:03:58.837Z,14.32
2022-08-05T21:07:00.858Z,10.70
2022-08-05T21:10:03.378Z,10.88
2022-08-05T21:13:10.250Z,9.40
2022-08-05T21:16:16.525Z,8.32
2022-08-05T21:19:18.633Z,8.00
2022-08-05T21:22:23.509Z,9.30
2022-08-05T21:25:26.256Z,10.68
2022-08-05T21:28:36.104Z,6.53
2022-08-05T21:31:41.340Z,9.38
2022-08-05T21:34:43.896Z,10.02
2022-08-05T21:37:58.313Z,9.77
2022-08-05T21:41:00.449Z,10.05
2022-08-05T21:44:04.767Z,8.77
2022-08-05T21:47:17.276Z,8.88
2022-08-05T21:50:29.587Z,14.07
2022-08-05T21:53:34.057Z,7.33
2022-08-05T21:56:44.467Z,8.68
2022-08-05T22:00:05.993Z,10.15
2022-08-05T22:03:15.281Z,8.38
2022-08-05T22:06:22.892Z,7.60
2022-08-05T22:09:46.044Z,6.33
2022-08-05T22:12:50.893Z,9.23
2022-08-05T22:16:00.482Z,7.07
2022-08-05T22:19:15.088Z,8.50
2022-08-05T22:22:52.560Z,7.32
2022-08-05T22:26:15.010Z,6.57
2022-08-05T22:29:17.507Z,6.15
2022-08-05T22:32:21.079Z,6.63
2022-08-05T22:35:25.173Z,7.90
2022-08-05T22:38:33.449Z,6.53
2022-08-05T22:42:09.564Z,6.10
2022-08-05T22:45:01.867Z,8.35
2022-08-05T22:48:05.380Z,7.47
2022-08-05T22:51:16.084Z,6.22
2022-08-05T22:54:25.462Z,6.15
2022-08-05T22:57:34.148Z,5.93
2022-08-05T23:00:38.483Z,9.35
2022-08-05T23:03:58.264Z,6.43
2022-08-05T23:07:01.905Z,7.47
2022-08-05T23:10:05.254Z,7.80
2022-08-05T23:13:09.781Z,7.60
2022-08-05T23:16:12.087Z,5.80
2022-08-05T23:19:23.752Z,7.18
2022-08-05T23:22:29.723Z,7.78
2022-08-05T23:25:53.157Z,6.03
2022-08-05T23:28:55.734Z,7.70
2022-08-05T23:31:57.925Z,9.68
2022-08-05T23:35:01.373Z,6.97
2022-08-05T23:38:05.742Z,8.63
2022-08-05T23:41:14.099Z,9.90
2022-08-05T23:44:19.802Z,8.60
2022-08-05T23:47:26.964Z,9.48
2022-08-05T23:50:29.157Z,6.03
2022-08-05T23:53:46.545Z,8.20
2022-08-05T23:56:49.035Z,6.47
